createdAt,value
2023-03-12T00:01:21.891Z,8.71
2023-03-12T00:03:25.252Z,8.75
2023-03-12T00:05:27.966Z,8.83
2023-03-12T00:07:30.406Z,8.84
2023-03-12T00:09:36.008Z,8.85
2023-03-12T00:11:38.367Z,8.83
2023-03-12T00:13:40.967Z,8.88
2023-03-12T00:15:43.397Z,8.81
2023-03-12T00:17:45.725Z,8.83
2023-03-12T00:19:52.966Z,8.89
2023-03-12T00:21:55.486Z,8.91
2023-03-12T00:23:58.253Z,8.92
2023-03-12T00:26:03.012Z,8.93
2023-03-12T00:28:05.650Z,8.96
2023-03-12T00:30:09.245Z,9.00
2023-03-12T00:32:11.658Z,8.99
2023-03-12T00:34:14.339Z,9.06
2023-03-12T00:36:18.179Z,9.13
2023-03-12T00:38:20.482Z,9.14
2023-03-12T00:40:22.791Z,9.15
2023-03-12T00:42:25.087Z,9.22
2023-03-12T00:44:28.000Z,9.24
2023-03-12T00:46:30.466Z,9.29
2023-03-12T00:48:32.881Z,9.38
2023-03-12T00:50:35.491Z,9.42
2023-03-12T00:52:37.925Z,9.43
2023-03-12T00:54:40.648Z,9.43
2023-03-12T00:56:43.044Z,9.38
2023-03-12T00:58:46.694Z,9.43
2023-03-12T01:00:49.232Z,9.38
2023-03-12T01:02:51.559Z,9.38
2023-03-12T01:04:53.930Z,9.45
2023-03-12T01:06:56.642Z,9.36
2023-03-12T01:08:59.051Z,9.43
2023-03-12T01:11:03.527Z,9.44
2023-03-12T01:13:05.885Z,9.55
2023-03-12T01:15:09.298Z,9.61
2023-03-12T01:17:11.573Z,9.63
2023-03-12T01:19:13.865Z,9.69
2023-03-12T01:21:16.332Z,9.64
2023-03-12T01:23:19.013Z,9.73
2023-03-12T01:25:23.087Z,9.77
2023-03-12T01:27:25.646Z,9.74
2023-03-12T01:29:28.173Z,9.65
2023-03-12T01:31:30.555Z,9.66
2023-03-12T01:33:33.103Z,9.81
2023-03-12T01:35:39.818Z,9.87
2023-03-12T01:37:42.242Z,9.97
2023-03-12T01:39:44.648Z,10.07
2023-03-12T01:41:47.049Z,10.10
2023-03-12T01:43:49.611Z,10.16
2023-03-12T01:45:58.214Z,10.19
2023-03-12T01:48:00.647Z,10.21
2023-03-12T01:50:04.844Z,10.29
2023-03-12T01:52:09.543Z,10.38
2023-03-12T01:54:20.925Z,10.40
2023-03-12T01:56:27.361Z,10.47
2023-03-12T01:58:34.249Z,10.50
2023-03-12T02:00:36.655Z,10.56
2023-03-12T02:02:40.645Z,10.48
2023-03-12T02:04:45.445Z,10.54
2023-03-12T02:06:57.479Z,10.60
2023-03-12T02:09:02.279Z,10.58
2023-03-12T02:11:04.886Z,10.57
2023-03-12T02:13:08.124Z,10.60
2023-03-12T02:15:12.140Z,10.60
2023-03-12T02:17:14.840Z,10.68
2023-03-12T02:19:27.482Z,10.64
2023-03-12T02:21:34.088Z,10.64
2023-03-12T02:23:46.176Z,10.72
2023-03-12T02:25:52.171Z,10.64
2023-03-12T02:27:56.846Z,10.77
2023-03-12T02:30:00.250Z,10.67
2023-03-12T02:32:05.158Z,10.69
2023-03-12T02:34:07.641Z,10.75
2023-03-12T02:36:10.394Z,10.64
2023-03-12T02:38:19.045Z,10.74
2023-03-12T02:40:29.726Z,10.81
2023-03-12T02:42:32.601Z,10.72
2023-03-12T02:44:36.969Z,10.69
2023-03-12T02:46:44.167Z,10.79
2023-03-12T02:48:46.683Z,10.86
2023-03-12T02:50:49.126Z,10.85
2023-03-12T02:52:51.482Z,10.76
2023-03-12T02:54:54.079Z,10.84
2023-03-12T02:56:57.457Z,10.75
2023-03-12T02:59:02.579Z,10.91
2023-03-12T03:01:06.584Z,10.87
2023-03-12T03:03:09.243Z,10.63
2023-03-12T03:05:12.815Z,10.83
2023-03-12T03:07:15.322Z,10.86
2023-03-12T03:09:18.089Z,10.79
2023-03-12T03:11:24.602Z,10.88
2023-03-12T03:13:27.045Z,10.97
2023-03-12T03:15:30.114Z,10.86
2023-03-12T03:17:32.640Z,10.90
2023-03-12T03:19:35.056Z,11.03
2023-03-12T03:21:37.976Z,11.00
2023-03-12T03:23:40.413Z,11.04
2023-03-12T03:25:43.047Z,11.12
2023-03-12T03:27:45.486Z,11.11
2023-03-12T03:31:50.401Z,11.14
2023-03-12T03:33:52.812Z,11.17
2023-03-12T03:35:56.678Z,11.18
2023-03-12T03:37:59.206Z,11.20
2023-03-12T03:40:01.609Z,11.20
2023-03-12T03:42:04.020Z,11.25
2023-03-12T03:44:08.286Z,11.23
2023-03-12T03:46:12.326Z,11.31
2023-03-12T03:48:15.362Z,11.26
2023-03-12T03:50:17.926Z,11.18
2023-03-12T03:52:20.324Z,11.17
2023-03-12T03:54:22.601Z,11.13
2023-03-12T03:56:25.122Z,11.18
2023-03-12T03:58:27.561Z,11.15
2023-03-12T04:00:29.889Z,11.16
2023-03-12T04:02:32.341Z,11.17
2023-03-12T04:04:34.730Z,10.89
2023-03-12T04:06:37.411Z,11.01
2023-03-12T04:08:40.642Z,10.97
2023-03-12T04:10:43.133Z,10.98
2023-03-12T04:12:45.447Z,10.96
2023-03-12T04:14:47.720Z,10.93
2023-03-12T04:16:50.177Z,10.90
2023-03-12T04:18:52.519Z,10.74
2023-03-12T04:20:55.467Z,10.86
2023-03-12T04:22:59.009Z,10.96
2023-03-12T04:25:01.923Z,10.97
2023-03-12T04:27:04.641Z,10.91
2023-03-12T04:29:07.689Z,10.90
2023-03-12T04:31:12.842Z,10.84
2023-03-12T04:33:15.254Z,10.85
2023-03-12T04:35:17.735Z,10.90
2023-03-12T04:37:20.039Z,10.96
2023-03-12T04:39:22.375Z,10.94
2023-03-12T04:41:25.081Z,10.95
2023-03-12T04:43:29.285Z,10.93
2023-03-12T04:45:31.725Z,10.90
2023-03-12T04:47:34.648Z,10.91
2023-03-12T04:49:39.852Z,10.80
2023-03-12T04:51:42.335Z,10.80
2023-03-12T04:53:44.783Z,10.81
2023-03-12T04:55:47.320Z,10.83
2023-03-12T04:57:49.930Z,10.70
2023-03-12T04:59:52.687Z,10.74
2023-03-12T05:01:55.213Z,10.80
2023-03-12T05:03:57.789Z,10.74
2023-03-12T05:06:00.352Z,10.75
2023-03-12T05:08:04.109Z,10.69
2023-03-12T05:10:07.649Z,10.74
2023-03-12T05:12:11.343Z,10.70
2023-03-12T05:14:13.776Z,10.68
2023-03-12T05:16:16.842Z,10.62
2023-03-12T05:18:20.890Z,10.72
2023-03-12T05:20:23.330Z,10.74
2023-03-12T05:22:25.648Z,10.68
2023-03-12T05:24:29.568Z,10.78
2023-03-12T05:26:33.621Z,10.67
2023-03-12T05:28:36.135Z,10.64
2023-03-12T05:30:40.256Z,10.48
2023-03-12T05:32:42.789Z,10.63
2023-03-12T05:34:45.295Z,10.46
2023-03-12T05:36:47.681Z,10.65
2023-03-12T05:38:49.969Z,10.58
2023-03-12T05:40:55.698Z,10.57
2023-03-12T05:42:58.185Z,10.57
2023-03-12T05:45:00.941Z,10.46
2023-03-12T05:47:03.385Z,10.50
2023-03-12T05:49:05.734Z,10.56
2023-03-12T05:51:08.465Z,10.59
2023-03-12T05:53:11.500Z,10.55
2023-03-12T05:55:14.245Z,10.59
2023-03-12T05:57:16.581Z,10.50
2023-03-12T05:59:19.052Z,10.44
2023-03-12T06:01:25.606Z,10.50
2023-03-12T06:03:28.288Z,10.52
2023-03-12T06:05:31.722Z,10.39
2023-03-12T06:07:34.129Z,10.41
2023-03-12T06:09:36.807Z,10.55
2023-03-12T06:11:39.380Z,10.53
2023-03-12T06:13:42.249Z,10.57
2023-03-12T06:15:45.288Z,10.63
2023-03-12T06:17:47.737Z,10.59
2023-03-12T06:19:53.163Z,10.64
2023-03-12T06:21:55.560Z,10.63
2023-03-12T06:23:58.561Z,10.56
2023-03-12T06:26:00.928Z,10.54
2023-03-12T06:28:03.362Z,10.52
2023-03-12T06:30:06.608Z,10.55
2023-03-12T06:32:09.444Z,10.55
2023-03-12T06:34:11.801Z,10.58
2023-03-12T06:36:15.841Z,10.62
2023-03-12T06:38:18.280Z,10.67
2023-03-12T06:40:20.890Z,10.55
2023-03-12T06:42:23.246Z,10.64
2023-03-12T06:44:25.929Z,10.60
2023-03-12T06:46:28.385Z,10.51
2023-03-12T06:48:34.441Z,10.56
2023-03-12T06:50:36.841Z,10.59
2023-03-12T06:52:40.856Z,10.63
2023-03-12T06:54:43.358Z,10.60
2023-03-12T06:56:46.382Z,10.65
2023-03-12T06:58:49.440Z,10.66
2023-03-12T07:00:53.289Z,10.58
2023-03-12T07:02:55.642Z,10.54
2023-03-12T07:04:58.355Z,10.40
2023-03-12T07:07:00.809Z,10.29
2023-03-12T07:09:03.476Z,10.37
2023-03-12T07:11:05.781Z,10.39
2023-03-12T07:13:08.376Z,10.47
2023-03-12T07:15:11.497Z,10.46
2023-03-12T07:17:13.967Z,10.40
2023-03-12T07:19:16.575Z,10.49
2023-03-12T07:21:23.056Z,10.55
2023-03-12T07:23:25.455Z,10.35
2023-03-12T07:25:27.818Z,10.59
2023-03-12T07:27:30.411Z,10.57
2023-03-12T07:29:32.653Z,10.53
2023-03-12T07:31:35.122Z,10.43
2023-03-12T07:33:37.942Z,10.52
2023-03-12T07:35:40.810Z,10.63
2023-03-12T07:37:43.218Z,10.57
2023-03-12T07:39:45.664Z,10.59
2023-03-12T07:41:48.299Z,10.53
2023-03-12T07:43:50.771Z,10.52
2023-03-12T07:45:53.409Z,10.57
2023-03-12T07:47:55.927Z,10.60
2023-03-12T07:49:58.668Z,10.63
2023-03-12T07:52:01.301Z,10.75
2023-03-12T07:54:03.649Z,10.80
2023-03-12T07:56:06.729Z,10.81
2023-03-12T07:58:09.379Z,10.93
2023-03-12T08:00:12.927Z,10.92
2023-03-12T08:02:15.592Z,10.83
2023-03-12T08:04:18.114Z,10.84
2023-03-12T08:06:21.470Z,10.92
2023-03-12T08:08:23.790Z,10.93
2023-03-12T08:10:26.518Z,11.02
2023-03-12T08:12:29.174Z,11.07
2023-03-12T08:14:32.490Z,11.07
2023-03-12T08:16:35.063Z,11.06
2023-03-12T08:18:37.936Z,10.96
2023-03-12T08:20:40.402Z,11.02
2023-03-12T08:22:42.592Z,11.11
2023-03-12T08:24:44.767Z,11.12
2023-03-12T08:26:47.164Z,11.08
2023-03-12T08:28:49.297Z,11.15
2023-03-12T08:30:54.111Z,11.07
2023-03-12T08:32:56.368Z,11.23
2023-03-12T08:34:58.776Z,11.26
2023-03-12T08:37:01.681Z,11.30
2023-03-12T08:39:04.863Z,11.21
2023-03-12T08:41:07.225Z,11.22
2023-03-12T08:43:09.579Z,11.33
2023-03-12T08:45:13.068Z,11.39
2023-03-12T08:47:15.319Z,11.31
2023-03-12T08:49:18.124Z,11.27
2023-03-12T08:51:20.358Z,11.32
2023-03-12T08:53:22.940Z,11.42
2023-03-12T08:55:26.469Z,11.51
2023-03-12T08:57:29.388Z,11.63
2023-03-12T08:59:31.568Z,11.60
2023-03-12T09:01:33.940Z,11.64
2023-03-12T09:03:36.182Z,11.56
2023-03-12T09:05:38.444Z,11.73
2023-03-12T09:07:41.593Z,11.74
2023-03-12T09:09:43.791Z,11.55
2023-03-12T09:11:45.995Z,11.77
2023-03-12T09:14:16.855Z,11.74
2023-03-12T09:16:10.359Z,11.61
2023-03-12T09:18:12.677Z,11.74
2023-03-12T09:20:15.088Z,11.62
2023-03-12T09:22:17.647Z,11.87
2023-03-12T09:24:20.505Z,11.83
2023-03-12T09:26:22.747Z,11.83
2023-03-12T09:28:25.002Z,11.80
2023-03-12T09:30:30.377Z,11.83
2023-03-12T09:32:32.838Z,11.86
2023-03-12T09:34:36.045Z,11.57
2023-03-12T09:36:38.393Z,11.78
2023-03-12T09:38:40.750Z,11.94
2023-03-12T09:40:47.895Z,12.06
2023-03-12T09:42:52.765Z,12.08
2023-03-12T09:44:57.830Z,11.99
2023-03-12T09:47:08.518Z,12.00
2023-03-12T09:49:20.031Z,11.99
2023-03-12T09:51:28.454Z,11.91
2023-03-12T09:53:37.954Z,12.12
2023-03-12T09:55:43.749Z,12.01
2023-03-12T09:57:47.557Z,11.91
2023-03-12T09:59:51.280Z,11.99
2023-03-12T10:01:58.804Z,12.14
2023-03-12T10:04:07.228Z,12.22
2023-03-12T10:06:10.514Z,12.18
2023-03-12T10:08:25.186Z,12.29
2023-03-12T10:10:36.913Z,12.24
2023-03-12T10:12:48.109Z,12.17
2023-03-12T10:15:00.561Z,12.31
2023-03-12T10:17:09.149Z,12.36
2023-03-12T10:19:28.417Z,12.36
2023-03-12T10:21:31.315Z,12.38
2023-03-12T10:23:39.815Z,12.38
2023-03-12T10:25:48.898Z,12.36
2023-03-12T10:27:51.229Z,12.30
2023-03-12T10:29:55.259Z,12.47
2023-03-12T10:32:03.065Z,12.51
2023-03-12T10:34:17.687Z,12.68
2023-03-12T10:36:25.449Z,12.73
2023-03-12T10:38:30.325Z,12.62
2023-03-12T10:40:35.043Z,12.58
2023-03-12T10:42:37.479Z,12.76
2023-03-12T10:44:40.529Z,12.56
2023-03-12T10:46:51.813Z,12.63
2023-03-12T10:49:17.055Z,12.64
2023-03-12T10:51:19.368Z,12.58
2023-03-12T10:53:22.802Z,12.64
2023-03-12T10:55:29.656Z,12.58
2023-03-12T10:57:41.044Z,12.62
2023-03-12T10:59:46.349Z,12.54
2023-03-12T11:01:52.084Z,12.69
2023-03-12T11:04:10.897Z,12.79
2023-03-12T11:06:19.409Z,12.71
2023-03-12T11:08:27.300Z,12.83
2023-03-12T11:10:33.990Z,12.94
2023-03-12T11:12:40.038Z,12.98
2023-03-12T11:14:47.232Z,12.96
2023-03-12T11:16:51.232Z,12.91
2023-03-12T11:18:57.760Z,13.05
2023-03-12T11:21:06.298Z,13.11
2023-03-12T11:23:15.659Z,13.07
2023-03-12T11:25:24.134Z,13.15
2023-03-12T11:27:35.103Z,13.12
2023-03-12T11:29:43.778Z,13.15
2023-03-12T11:31:54.354Z,13.13
2023-03-12T11:34:03.404Z,13.03
2023-03-12T11:36:20.929Z,13.12
2023-03-12T11:38:31.568Z,13.14
2023-03-12T11:40:36.869Z,13.17
2023-03-12T11:42:42.668Z,13.13
2023-03-12T11:44:46.873Z,13.12
2023-03-12T11:46:53.586Z,12.98
2023-03-12T11:48:59.300Z,13.12
2023-03-12T11:51:14.109Z,13.15
2023-03-12T11:53:20.928Z,13.15
2023-03-12T11:55:27.636Z,13.09
2023-03-12T11:57:33.231Z,13.05
2023-03-12T11:59:43.860Z,13.06
2023-03-12T12:01:52.316Z,13.03
2023-03-12T12:03:59.117Z,13.02
2023-03-12T12:06:06.721Z,13.12
2023-03-12T12:08:13.367Z,13.18
2023-03-12T12:10:21.788Z,13.27
2023-03-12T12:12:28.544Z,13.24
2023-03-12T12:14:33.597Z,13.44
2023-03-12T12:16:46.456Z,13.33
2023-03-12T12:18:52.073Z,13.29
2023-03-12T12:20:57.724Z,13.30
2023-03-12T12:23:01.818Z,13.35
2023-03-12T12:25:09.059Z,13.42
2023-03-12T12:27:17.505Z,13.44
2023-03-12T12:29:26.511Z,13.49
2023-03-12T12:31:32.258Z,13.47
2023-03-12T12:33:40.600Z,13.44
2023-03-12T12:35:43.999Z,13.62
2023-03-12T12:37:52.158Z,13.72
2023-03-12T12:40:08.933Z,13.83
2023-03-12T12:42:18.564Z,13.80
2023-03-12T12:44:28.242Z,13.89
2023-03-12T12:46:34.788Z,13.92
2023-03-12T12:48:40.695Z,14.12
2023-03-12T12:50:44.510Z,14.14
2023-03-12T12:52:53.835Z,14.13
2023-03-12T12:55:03.815Z,14.35
2023-03-12T12:57:13.966Z,14.33
2023-03-12T12:59:21.645Z,14.42
2023-03-12T13:01:27.225Z,14.48
2023-03-12T13:03:31.077Z,14.51
2023-03-12T13:05:46.262Z,14.60
2023-03-12T13:07:48.626Z,14.60
2023-03-12T13:09:53.715Z,14.62
2023-03-12T13:11:56.270Z,14.60
2023-03-12T13:14:02.942Z,14.68
2023-03-12T13:16:11.634Z,14.83
2023-03-12T13:18:20.160Z,14.89
2023-03-12T13:20:28.548Z,14.75
2023-03-12T13:22:31.443Z,14.85
2023-03-12T13:24:41.815Z,14.66
2023-03-12T13:26:50.336Z,14.73
2023-03-12T13:29:06.173Z,14.82
2023-03-12T13:31:15.686Z,14.77
2023-03-12T13:33:21.969Z,14.70
2023-03-12T13:35:24.965Z,14.73
2023-03-12T13:37:48.071Z,14.85
2023-03-12T13:39:51.505Z,14.90
2023-03-12T13:41:57.464Z,14.87
2023-03-12T13:44:00.529Z,14.68
2023-03-12T13:46:10.642Z,14.58
2023-03-12T13:48:18.532Z,14.61
2023-03-12T13:50:20.995Z,14.69
2023-03-12T13:52:25.349Z,14.47
2023-03-12T13:54:34.619Z,14.48
2023-03-12T13:56:37.504Z,14.51
2023-03-12T13:58:47.540Z,14.45
2023-03-12T14:00:56.179Z,14.38
2023-03-12T14:03:03.921Z,14.32
2023-03-12T14:05:11.624Z,14.21
2023-03-12T14:07:18.404Z,14.34
2023-03-12T14:09:31.855Z,14.40
2023-03-12T14:11:44.294Z,14.51
2023-03-12T14:13:51.122Z,14.44
2023-03-12T14:16:01.379Z,14.44
2023-03-12T14:18:14.533Z,14.26
2023-03-12T14:20:21.817Z,14.51
2023-03-12T14:22:25.481Z,14.46
2023-03-12T14:24:36.254Z,14.68
2023-03-12T14:26:39.189Z,14.81
2023-03-12T14:28:42.478Z,14.64
2023-03-12T14:30:50.366Z,14.80
2023-03-12T14:32:56.768Z,14.80
2023-03-12T14:35:05.304Z,14.78
2023-03-12T14:37:16.695Z,14.77
2023-03-12T14:39:22.398Z,14.67
2023-03-12T14:41:32.166Z,14.68
2023-03-12T14:43:35.878Z,14.63
2023-03-12T14:45:41.320Z,14.54
2023-03-12T14:47:45.726Z,14.55
2023-03-12T14:49:48.036Z,14.55
2023-03-12T14:51:50.444Z,14.49
2023-03-12T14:53:53.658Z,14.33
2023-03-12T14:56:02.292Z,14.32
2023-03-12T14:58:07.309Z,14.27
2023-03-12T15:00:24.873Z,14.31
2023-03-12T15:02:30.609Z,14.28
2023-03-12T15:04:38.302Z,14.32
2023-03-12T15:06:46.553Z,14.37
2023-03-12T15:08:49.354Z,14.30
2023-03-12T15:10:56.122Z,14.24
2023-03-12T15:13:01.047Z,14.18
2023-03-12T15:15:09.955Z,14.26
2023-03-12T15:17:18.121Z,14.31
2023-03-12T15:19:27.050Z,14.08
2023-03-12T15:21:29.326Z,14.03
2023-03-12T15:23:35.424Z,13.89
2023-03-12T15:25:38.908Z,13.94
2023-03-12T15:27:41.090Z,13.71
2023-03-12T15:29:43.453Z,13.84
2023-03-12T15:31:48.452Z,13.89
2023-03-12T15:33:57.418Z,13.97
2023-03-12T15:36:04.874Z,13.76
2023-03-12T15:38:15.242Z,13.81
2023-03-12T15:40:22.541Z,13.58
2023-03-12T15:42:27.355Z,13.58
2023-03-12T15:44:44.676Z,13.62
2023-03-12T15:46:49.782Z,13.69
2023-03-12T15:48:55.395Z,13.56
2023-03-12T15:50:58.525Z,13.65
2023-03-12T15:53:06.473Z,13.49
2023-03-12T15:55:13.253Z,13.45
2023-03-12T15:57:20.865Z,13.43
2023-03-12T15:59:27.106Z,13.43
2023-03-12T16:01:29.599Z,13.29
2023-03-12T16:03:31.899Z,13.29
2023-03-12T16:05:37.725Z,13.18
2023-03-12T16:07:40.133Z,13.19
2023-03-12T16:09:42.604Z,13.17
2023-03-12T16:11:45.029Z,13.19
2023-03-12T16:13:50.165Z,13.24
2023-03-12T16:15:52.772Z,13.24
2023-03-12T16:17:54.970Z,13.11
2023-03-12T16:19:57.323Z,13.08
2023-03-12T16:22:00.540Z,13.14
2023-03-12T16:24:03.239Z,13.08
2023-03-12T16:26:07.483Z,13.05
2023-03-12T16:28:14.912Z,13.09
2023-03-12T16:30:23.078Z,13.01
2023-03-12T16:32:25.340Z,12.84
2023-03-12T16:34:28.489Z,12.73
2023-03-12T16:36:30.762Z,12.79
2023-03-12T16:38:33.156Z,12.79
2023-03-12T16:40:38.669Z,12.75
2023-03-12T16:42:44.991Z,12.79
2023-03-12T16:44:47.705Z,12.86
2023-03-12T16:46:49.954Z,12.95
2023-03-12T16:48:54.122Z,12.77
2023-03-12T16:50:58.929Z,12.87
2023-03-12T16:53:04.546Z,12.59
2023-03-12T16:55:07.579Z,12.79
2023-03-12T16:57:18.789Z,12.77
2023-03-12T16:59:26.288Z,12.75
2023-03-12T17:01:29.498Z,12.74
2023-03-12T17:03:37.424Z,12.76
2023-03-12T17:05:41.064Z,12.74
2023-03-12T17:07:43.252Z,12.74
2023-03-12T17:09:45.492Z,12.73
2023-03-12T17:11:50.748Z,12.66
2023-03-12T17:13:58.701Z,12.63
2023-03-12T17:16:01.238Z,12.70
2023-03-12T17:18:04.704Z,12.68
2023-03-12T17:20:10.612Z,12.74
2023-03-12T17:22:13.109Z,12.71
2023-03-12T17:24:15.720Z,12.79
2023-03-12T17:26:18.824Z,12.60
2023-03-12T17:28:21.095Z,12.74
2023-03-12T17:30:24.653Z,12.83
2023-03-12T17:32:26.970Z,12.78
2023-03-12T17:34:30.307Z,12.77
2023-03-12T17:36:32.774Z,12.77
2023-03-12T17:38:35.278Z,12.79
2023-03-12T17:40:41.617Z,12.71
2023-03-12T17:42:44.019Z,12.60
2023-03-12T17:44:46.556Z,12.67
2023-03-12T17:46:58.781Z,12.62
2023-03-12T17:49:01.796Z,12.56
2023-03-12T17:51:08.213Z,12.66
2023-03-12T17:53:10.770Z,12.57
2023-03-12T17:55:13.197Z,12.69
2023-03-12T17:57:15.357Z,12.61
2023-03-12T17:59:18.430Z,12.55
2023-03-12T18:01:20.768Z,12.48
2023-03-12T18:03:23.175Z,12.40
2023-03-12T18:05:25.820Z,12.31
2023-03-12T18:07:28.160Z,12.29
2023-03-12T18:09:30.592Z,12.30
2023-03-12T18:11:32.818Z,12.36
2023-03-12T18:13:35.315Z,12.35
2023-03-12T18:15:37.789Z,12.39
2023-03-12T18:17:40.893Z,12.41
2023-03-12T18:19:43.177Z,12.48
2023-03-12T18:21:45.522Z,12.47
2023-03-12T18:23:47.911Z,12.38
2023-03-12T18:25:50.130Z,12.36
2023-03-12T18:27:53.677Z,12.43
2023-03-12T18:29:56.667Z,12.43
2023-03-12T18:31:58.964Z,12.41
2023-03-12T18:34:01.163Z,12.45
2023-03-12T18:36:04.188Z,12.41
2023-03-12T18:38:06.452Z,12.40
2023-03-12T18:40:10.324Z,12.41
2023-03-12T18:42:12.536Z,12.37
2023-03-12T18:44:14.712Z,12.42
2023-03-12T18:46:17.311Z,12.37
2023-03-12T18:48:19.499Z,12.41
2023-03-12T18:50:21.970Z,12.25
2023-03-12T18:52:24.259Z,12.21
2023-03-12T18:54:27.569Z,12.29
2023-03-12T18:56:30.126Z,12.27
2023-03-12T18:58:32.490Z,12.09
2023-03-12T19:00:34.792Z,12.05
2023-03-12T19:02:38.166Z,12.08
2023-03-12T19:04:45.324Z,12.15
2023-03-12T19:06:51.455Z,12.25
2023-03-12T19:08:54.256Z,12.16
2023-03-12T19:10:56.727Z,12.20
2023-03-12T19:12:59.257Z,12.28
2023-03-12T19:15:01.743Z,12.26
2023-03-12T19:17:04.412Z,12.27
2023-03-12T19:19:06.717Z,12.31
2023-03-12T19:21:09.113Z,12.21
2023-03-12T19:23:11.320Z,12.26
2023-03-12T19:25:14.189Z,12.15
2023-03-12T19:27:16.429Z,12.14
2023-03-12T19:29:18.715Z,12.23
2023-03-12T19:31:21.103Z,12.24
2023-03-12T19:33:23.684Z,12.23
2023-03-12T19:35:26.010Z,12.24
2023-03-12T19:37:28.892Z,12.18
2023-03-12T19:39:31.081Z,12.10
2023-03-12T19:41:33.478Z,12.21
2023-03-12T19:43:36.762Z,12.07
2023-03-12T19:45:39.113Z,12.09
2023-03-12T19:47:41.799Z,12.12
2023-03-12T19:49:44.328Z,12.04
2023-03-12T19:51:46.556Z,12.12
2023-03-12T19:53:48.850Z,12.18
2023-03-12T19:55:51.357Z,12.07
2023-03-12T19:57:54.467Z,12.08
2023-03-12T19:59:56.873Z,12.18
2023-03-12T20:02:01.840Z,12.19
2023-03-12T20:04:08.158Z,12.05
2023-03-12T20:06:11.556Z,12.08
2023-03-12T20:08:14.178Z,12.22
2023-03-12T20:10:16.688Z,12.18
2023-03-12T20:12:19.068Z,12.24
2023-03-12T20:14:21.503Z,12.18
2023-03-12T20:16:23.936Z,12.25
2023-03-12T20:18:26.141Z,12.06
2023-03-12T20:20:28.334Z,12.07
2023-03-12T20:22:31.387Z,12.20
2023-03-12T20:24:33.613Z,12.13
2023-03-12T20:26:39.638Z,12.20
2023-03-12T20:28:42.364Z,12.26
2023-03-12T20:30:44.628Z,12.28
2023-03-12T20:32:46.922Z,12.28
2023-03-12T20:34:49.320Z,12.27
2023-03-12T20:36:51.610Z,12.25
2023-03-12T20:38:53.879Z,12.22
2023-03-12T20:40:56.073Z,12.29
2023-03-12T20:42:58.428Z,12.41
2023-03-12T20:45:00.985Z,12.34
2023-03-12T20:47:03.253Z,12.49
2023-03-12T20:49:05.495Z,12.39
2023-03-12T20:51:07.895Z,12.53
2023-03-12T20:53:10.387Z,12.51
2023-03-12T20:55:12.672Z,12.37
2023-03-12T20:57:14.970Z,12.50
2023-03-12T20:59:17.333Z,12.55
2023-03-12T21:01:19.995Z,12.61
2023-03-12T21:03:23.100Z,12.75
2023-03-12T21:05:27.241Z,12.70
2023-03-12T21:07:29.637Z,12.75
2023-03-12T21:09:32.094Z,12.77
2023-03-12T21:11:34.664Z,12.74
2023-03-12T21:13:37.086Z,12.80
2023-03-12T21:15:39.204Z,12.87
2023-03-12T21:17:41.594Z,12.88
2023-03-12T21:19:44.196Z,12.79
2023-03-12T21:21:46.435Z,12.76
2023-03-12T21:23:48.740Z,12.88
2023-03-12T21:25:59.437Z,12.76
2023-03-12T21:28:02.479Z,12.88
2023-03-12T21:30:05.700Z,12.79
2023-03-12T21:32:08.095Z,12.76
2023-03-12T21:34:10.318Z,12.76
2023-03-12T21:36:14.675Z,12.85
2023-03-12T21:38:17.011Z,12.66
2023-03-12T21:40:19.454Z,12.80
2023-03-12T21:42:21.641Z,12.65
2023-03-12T21:44:23.934Z,12.75
2023-03-12T21:46:27.959Z,12.77
2023-03-12T21:48:30.260Z,12.79
2023-03-12T21:50:32.434Z,12.81
2023-03-12T21:52:41.490Z,12.92
2023-03-12T21:54:45.791Z,12.81
2023-03-12T21:56:48.009Z,12.86
2023-03-12T21:58:50.285Z,12.80
2023-03-12T22:00:52.816Z,12.88
2023-03-12T22:02:55.106Z,12.64
2023-03-12T22:05:00.311Z,12.68
2023-03-12T22:07:02.739Z,12.82
2023-03-12T22:09:05.079Z,12.81
2023-03-12T22:11:08.560Z,12.87
2023-03-12T22:13:14.608Z,12.82
2023-03-12T22:15:19.347Z,12.87
2023-03-12T22:17:25.228Z,12.95
2023-03-12T22:19:33.189Z,13.00
2023-03-12T22:21:35.320Z,13.03
2023-03-12T22:23:37.881Z,12.99
2023-03-12T22:25:40.059Z,12.93
2023-03-12T22:27:42.309Z,12.94
2023-03-12T22:29:44.449Z,12.95
2023-03-12T22:31:46.659Z,13.14
2023-03-12T22:33:49.314Z,13.07
2023-03-12T22:35:51.582Z,13.00
2023-03-12T22:37:54.809Z,13.03
2023-03-12T22:40:01.713Z,12.96
2023-03-12T22:42:04.173Z,13.05
2023-03-12T22:44:09.484Z,13.06
2023-03-12T22:46:12.393Z,13.07
2023-03-12T22:48:14.622Z,13.14
2023-03-12T22:50:17.176Z,13.14
2023-03-12T22:52:19.412Z,13.13
2023-03-12T22:54:21.973Z,13.03
2023-03-12T22:56:25.142Z,13.15
2023-03-12T22:58:27.865Z,13.04
2023-03-12T23:00:30.124Z,13.17
2023-03-12T23:02:32.584Z,13.24
2023-03-12T23:04:34.943Z,13.20
2023-03-12T23:06:37.178Z,13.26
2023-03-12T23:08:39.744Z,13.21
2023-03-12T23:10:41.948Z,13.22
2023-03-12T23:12:44.184Z,13.40
2023-03-12T23:14:46.432Z,13.36
2023-03-12T23:16:48.856Z,13.35
2023-03-12T23:18:51.864Z,13.48
2023-03-12T23:20:57.941Z,13.43
2023-03-12T23:23:00.184Z,13.47
2023-03-12T23:25:02.606Z,13.38
2023-03-12T23:27:05.851Z,13.46
2023-03-12T23:29:09.118Z,13.43
2023-03-12T23:31:11.604Z,13.45
2023-03-12T23:33:13.904Z,13.47
2023-03-12T23:35:16.506Z,13.53
2023-03-12T23:37:18.973Z,13.40
2023-03-12T23:39:21.305Z,13.36
2023-03-12T23:41:27.422Z,13.39
2023-03-12T23:43:30.007Z,13.27
2023-03-12T23:45:32.294Z,13.46
2023-03-12T23:47:34.477Z,13.47
2023-03-12T23:49:36.665Z,13.52
2023-03-12T23:51:41.018Z,13.66
2023-03-12T23:53:45.277Z,13.51
2023-03-12T23:55:53.748Z,13.48
2023-03-12T23:57:55.906Z,13.60
2023-03-12T23:59:58.098Z,13.52
